createdAt,value
2017-09-27T00:00:15.629Z,0
2017-09-27T00:01:25.878Z,0
2017-09-27T00:02:36.137Z,0
2017-09-27T00:03:46.329Z,0
2017-09-27T00:04:56.581Z,0
2017-09-27T00:06:06.839Z,0
2017-09-27T00:07:17.089Z,0
2017-09-27T00:08:27.069Z,0
2017-09-27T00:09:37.566Z,0
2017-09-27T00:10:47.821Z,0
2017-09-27T00:11:58.063Z,0
2017-09-27T00:13:08.000Z,0
2017-09-27T00:14:17.949Z,0
2017-09-27T00:15:28.494Z,0
2017-09-27T00:16:38.758Z,0
2017-09-27T00:17:49.232Z,0
2017-09-27T00:18:59.488Z,0
2017-09-27T00:20:09.741Z,0
2017-09-27T00:21:19.664Z,0
2017-09-27T00:22:29.600Z,0
2017-09-27T00:23:39.846Z,0
2017-09-27T00:24:50.432Z,0
2017-09-27T00:26:00.058Z,0
2017-09-27T00:27:10.555Z,0
2017-09-27T00:28:20.810Z,0
2017-09-27T00:29:31.063Z,0
2017-09-27T00:30:41.333Z,0
2017-09-27T00:31:51.579Z,0
2017-09-27T00:33:02.081Z,0
2017-09-27T00:34:12.342Z,0
2017-09-27T00:35:22.285Z,0
2017-09-27T00:36:32.536Z,0
2017-09-27T00:37:42.576Z,0
2017-09-27T00:38:53.084Z,0
2017-09-27T00:40:02.384Z,0
2017-09-27T00:41:12.318Z,0
2017-09-27T00:42:22.569Z,0
2017-09-27T00:43:32.505Z,0
2017-09-27T00:44:43.000Z,0
2017-09-27T00:45:53.277Z,0
2017-09-27T00:47:03.524Z,0
2017-09-27T00:48:13.776Z,0
2017-09-27T00:49:23.714Z,0
2017-09-27T00:50:34.248Z,0
2017-09-27T00:51:44.192Z,0
2017-09-27T00:52:54.440Z,0
2017-09-27T00:54:04.689Z,0
2017-09-27T00:55:14.630Z,0
2017-09-27T00:56:25.132Z,0
2017-09-27T00:57:35.076Z,0
2017-09-27T00:58:45.006Z,0
2017-09-27T00:59:54.965Z,0
2017-09-27T01:01:04.921Z,0
2017-09-27T01:02:15.109Z,0
2017-09-27T01:03:25.358Z,0
2017-09-27T01:04:35.615Z,0
2017-09-27T01:05:45.868Z,0
2017-09-27T01:06:55.795Z,0
2017-09-27T01:08:06.299Z,0
2017-09-27T01:09:16.553Z,0
2017-09-27T01:10:26.168Z,0
2017-09-27T01:11:36.102Z,0
2017-09-27T01:12:45.729Z,0
2017-09-27T01:13:55.915Z,0
2017-09-27T01:15:06.164Z,0
2017-09-27T01:16:16.422Z,0
2017-09-27T01:17:26.678Z,0
2017-09-27T01:18:36.307Z,0
2017-09-27T01:19:46.810Z,0
2017-09-27T01:20:56.742Z,0
2017-09-27T01:22:06.674Z,0
2017-09-27T01:23:16.942Z,0
2017-09-27T01:24:27.193Z,0
2017-09-27T01:25:37.375Z,0
2017-09-27T01:26:47.630Z,0
2017-09-27T01:27:57.245Z,0
2017-09-27T01:29:07.497Z,0
2017-09-27T01:30:17.431Z,0
2017-09-27T01:31:27.616Z,0
2017-09-27T01:32:37.865Z,0
2017-09-27T01:33:48.109Z,0
2017-09-27T01:34:58.358Z,0
2017-09-27T01:36:08.608Z,0
2017-09-27T01:37:19.156Z,0
2017-09-27T01:38:29.415Z,0
2017-09-27T01:39:39.674Z,0
2017-09-27T01:40:49.966Z,0
2017-09-27T01:42:00.213Z,0
2017-09-27T01:43:10.084Z,0
2017-09-27T01:44:20.020Z,0
2017-09-27T01:45:30.266Z,0
2017-09-27T01:46:40.516Z,0
2017-09-27T01:47:50.790Z,0
2017-09-27T01:49:00.974Z,0
2017-09-27T01:50:11.222Z,0
2017-09-27T01:51:21.481Z,0
2017-09-27T01:52:31.735Z,0
2017-09-27T01:53:41.984Z,0
2017-09-27T01:54:52.479Z,0
2017-09-27T01:56:02.423Z,0
2017-09-27T01:57:12.687Z,0
2017-09-27T01:58:22.931Z,0
2017-09-27T01:59:33.179Z,0
2017-09-27T02:00:43.688Z,0
2017-09-27T02:01:53.929Z,0
2017-09-27T02:03:03.863Z,0
2017-09-27T02:04:14.126Z,0
2017-09-27T02:05:24.056Z,0
2017-09-27T02:06:34.248Z,0
2017-09-27T02:07:44.494Z,0
2017-09-27T02:08:54.420Z,0
2017-09-27T02:10:04.666Z,0
2017-09-27T02:11:14.960Z,0
2017-09-27T02:12:25.147Z,0
2017-09-27T02:13:35.395Z,0
2017-09-27T02:14:45.350Z,0
2017-09-27T02:15:55.611Z,0
2017-09-27T02:17:05.547Z,0
2017-09-27T02:18:16.093Z,0
2017-09-27T02:19:26.337Z,0
2017-09-27T02:20:36.273Z,0
2017-09-27T02:21:46.522Z,0
2017-09-27T02:22:56.772Z,0
2017-09-27T02:24:07.272Z,0
2017-09-27T02:25:17.521Z,0
2017-09-27T02:26:27.766Z,0
2017-09-27T02:27:38.014Z,0
2017-09-27T02:28:47.958Z,0
2017-09-27T02:29:58.459Z,0
2017-09-27T02:31:08.390Z,0
2017-09-27T02:32:18.644Z,0
2017-09-27T02:33:28.903Z,0
2017-09-27T02:34:39.152Z,0
2017-09-27T02:35:49.646Z,0
2017-09-27T02:36:59.892Z,0
2017-09-27T02:38:09.864Z,0
2017-09-27T02:39:19.796Z,0
2017-09-27T02:40:30.053Z,0
2017-09-27T02:41:39.609Z,0
2017-09-27T02:42:49.866Z,0
2017-09-27T02:44:00.120Z,0
2017-09-27T02:45:10.062Z,0
2017-09-27T02:46:20.315Z,0
2017-09-27T02:47:30.866Z,0
2017-09-27T02:48:41.118Z,0
2017-09-27T02:49:51.398Z,0
2017-09-27T02:51:01.342Z,0
2017-09-27T02:52:11.624Z,0
2017-09-27T02:53:22.138Z,0
2017-09-27T02:54:32.409Z,0
2017-09-27T02:55:42.666Z,0
2017-09-27T02:56:52.601Z,0
2017-09-27T02:58:02.540Z,0
2017-09-27T02:59:12.725Z,0
2017-09-27T03:00:22.662Z,0
2017-09-27T03:01:32.909Z,0
2017-09-27T03:02:43.152Z,0
2017-09-27T03:03:53.090Z,0
2017-09-27T03:05:03.268Z,0
2017-09-27T03:06:13.201Z,0
2017-09-27T03:07:23.134Z,0
2017-09-27T03:08:33.433Z,0
2017-09-27T03:09:43.725Z,0
2017-09-27T03:10:53.907Z,0
2017-09-27T03:12:03.836Z,0
2017-09-27T03:13:14.089Z,0
2017-09-27T03:14:24.339Z,0
2017-09-27T03:15:34.271Z,0
2017-09-27T03:16:44.817Z,0
2017-09-27T03:17:55.080Z,0
2017-09-27T03:19:05.018Z,0
2017-09-27T03:20:15.265Z,0
2017-09-27T03:21:25.201Z,0
2017-09-27T03:22:35.431Z,0
2017-09-27T03:23:45.373Z,0
2017-09-27T03:24:55.631Z,0
2017-09-27T03:26:05.574Z,0
2017-09-27T03:27:15.818Z,0
2017-09-27T03:28:26.010Z,0
2017-09-27T03:29:36.269Z,0
2017-09-27T03:30:46.527Z,0
2017-09-27T03:31:56.471Z,0
2017-09-27T03:33:06.412Z,0
2017-09-27T03:34:16.594Z,0
2017-09-27T03:35:26.524Z,0
2017-09-27T03:36:36.789Z,0
2017-09-27T03:37:47.041Z,0
2017-09-27T03:38:57.290Z,0
2017-09-27T03:40:07.801Z,0
2017-09-27T03:41:18.045Z,0
2017-09-27T03:42:28.307Z,0
2017-09-27T03:43:38.240Z,0
2017-09-27T03:44:48.519Z,0
2017-09-27T03:45:58.703Z,0
2017-09-27T03:47:08.633Z,0
2017-09-27T03:48:18.878Z,0
2017-09-27T03:49:29.130Z,0
2017-09-27T03:50:39.056Z,0
2017-09-27T03:51:49.243Z,0
2017-09-27T03:52:59.172Z,0
2017-09-27T03:54:09.417Z,0
2017-09-27T03:55:19.356Z,0
2017-09-27T03:56:29.296Z,0
2017-09-27T03:57:39.790Z,0
2017-09-27T03:58:50.033Z,0
2017-09-27T03:59:59.973Z,0
2017-09-27T04:01:10.224Z,0
2017-09-27T04:02:20.149Z,0
2017-09-27T04:03:30.709Z,0
2017-09-27T04:04:40.957Z,0
2017-09-27T04:05:51.203Z,0
2017-09-27T04:07:01.448Z,0
2017-09-27T04:08:11.696Z,0
2017-09-27T04:09:21.254Z,0
2017-09-27T04:10:31.535Z,0
2017-09-27T04:11:41.781Z,0
2017-09-27T04:12:52.042Z,0
2017-09-27T04:14:02.299Z,0
2017-09-27T04:15:12.478Z,0
2017-09-27T04:16:22.727Z,0
2017-09-27T04:17:32.668Z,0
2017-09-27T04:18:42.601Z,0
2017-09-27T04:19:52.530Z,0
2017-09-27T04:21:02.723Z,0
2017-09-27T04:22:12.985Z,0
2017-09-27T04:23:22.930Z,0
2017-09-27T04:24:33.176Z,0
2017-09-27T04:25:42.894Z,0
2017-09-27T04:26:53.086Z,0
2017-09-27T04:28:03.344Z,0
2017-09-27T04:29:13.290Z,0
2017-09-27T04:30:23.541Z,0
2017-09-27T04:31:33.480Z,0
2017-09-27T04:32:43.992Z,0
2017-09-27T04:33:54.232Z,0
2017-09-27T04:35:04.731Z,0
2017-09-27T04:36:14.689Z,0
2017-09-27T04:37:24.621Z,0
2017-09-27T04:38:35.130Z,0
2017-09-27T04:39:45.373Z,0
2017-09-27T04:40:55.321Z,0
2017-09-27T04:42:05.583Z,0
2017-09-27T04:43:15.849Z,0
2017-09-27T04:44:26.351Z,0
2017-09-27T04:45:36.601Z,0
2017-09-27T04:46:46.538Z,0
2017-09-27T04:47:56.789Z,0
2017-09-27T04:49:07.043Z,0
2017-09-27T04:50:17.701Z,0
2017-09-27T04:51:27.957Z,0
2017-09-27T04:52:38.201Z,0
2017-09-27T04:53:48.143Z,0
2017-09-27T04:54:58.407Z,0
2017-09-27T04:56:08.910Z,5
2017-09-27T04:57:18.528Z,5
2017-09-27T04:58:28.773Z,5
2017-09-27T04:59:39.056Z,5
2017-09-27T05:00:49.317Z,5
2017-09-27T05:01:59.507Z,5
2017-09-27T05:03:09.448Z,5
2017-09-27T05:04:19.710Z,10
2017-09-27T05:05:29.956Z,10
2017-09-27T05:06:40.213Z,10
2017-09-27T05:07:50.398Z,10
2017-09-27T05:09:00.022Z,10
2017-09-27T05:10:10.281Z,10
2017-09-27T05:11:20.539Z,15
2017-09-27T05:12:30.784Z,15
2017-09-27T05:13:41.313Z,15
2017-09-27T05:14:51.244Z,15
2017-09-27T05:16:01.188Z,20
2017-09-27T05:17:11.469Z,20
2017-09-27T05:18:21.733Z,20
2017-09-27T05:19:32.234Z,25
2017-09-27T05:20:42.501Z,25
2017-09-27T05:21:52.748Z,25
2017-09-27T05:23:02.682Z,30
2017-09-27T05:24:12.958Z,30
2017-09-27T05:25:23.146Z,35
2017-09-27T05:26:33.398Z,35
2017-09-27T05:27:43.032Z,40
2017-09-27T05:28:53.285Z,45
2017-09-27T05:30:03.218Z,45
2017-09-27T05:31:13.778Z,50
2017-09-27T05:32:23.806Z,55
2017-09-27T05:33:33.749Z,55
2017-09-27T05:34:44.007Z,55
2017-09-27T05:35:54.256Z,60
2017-09-27T05:37:04.784Z,60
2017-09-27T05:38:14.439Z,65
2017-09-27T05:39:24.735Z,65
2017-09-27T05:40:35.018Z,65
2017-09-27T05:41:45.292Z,60
2017-09-27T05:42:55.802Z,70
2017-09-27T05:44:06.081Z,75
2017-09-27T05:45:16.327Z,70
2017-09-27T05:46:25.956Z,75
2017-09-27T05:47:36.207Z,75
2017-09-27T05:48:46.711Z,75
2017-09-27T05:49:56.641Z,80
2017-09-27T05:51:06.896Z,70
2017-09-27T05:52:16.835Z,75
2017-09-27T05:53:27.082Z,75
2017-09-27T05:54:37.583Z,80
2017-09-27T05:55:47.835Z,80
2017-09-27T05:56:58.084Z,75
2017-09-27T05:58:08.020Z,80
2017-09-27T05:59:18.270Z,80
2017-09-27T06:00:28.774Z,75
2017-09-27T06:01:38.719Z,80
2017-09-27T06:02:48.964Z,80
2017-09-27T06:03:59.218Z,75
2017-09-27T06:05:08.859Z,85
2017-09-27T06:06:19.059Z,80
2017-09-27T06:07:29.030Z,85
2017-09-27T06:08:39.291Z,85
2017-09-27T06:09:49.244Z,85
2017-09-27T06:10:59.504Z,80
2017-09-27T06:12:10.043Z,85
2017-09-27T06:13:19.675Z,85
2017-09-27T06:14:29.929Z,85
2017-09-27T06:15:39.872Z,85
2017-09-27T06:16:49.812Z,90
2017-09-27T06:18:00.343Z,90
2017-09-27T06:19:10.596Z,105
2017-09-27T06:20:20.538Z,110
2017-09-27T06:21:30.467Z,100
2017-09-27T06:22:40.414Z,115
2017-09-27T06:23:50.915Z,110
2017-09-27T06:25:00.870Z,115
2017-09-27T06:26:10.822Z,115
2017-09-27T06:27:20.456Z,115
2017-09-27T06:28:30.397Z,120
2017-09-27T06:29:40.969Z,120
2017-09-27T06:30:51.265Z,115
2017-09-27T06:32:01.227Z,130
2017-09-27T06:33:11.515Z,115
2017-09-27T06:34:21.811Z,130
2017-09-27T06:35:32.342Z,125
2017-09-27T06:36:42.283Z,120
2017-09-27T06:37:52.794Z,120
2017-09-27T06:39:03.064Z,120
2017-09-27T06:40:13.059Z,130
2017-09-27T06:41:23.625Z,125
2017-09-27T06:42:33.880Z,120
2017-09-27T06:43:43.832Z,120
2017-09-27T06:44:54.132Z,135
2017-09-27T06:46:04.386Z,130
2017-09-27T06:47:14.588Z,125
2017-09-27T06:48:24.871Z,120
2017-09-27T06:49:34.810Z,120
2017-09-27T06:50:45.103Z,125
2017-09-27T06:51:55.373Z,120
2017-09-27T06:53:05.878Z,120
2017-09-27T06:54:16.171Z,115
2017-09-27T06:55:26.511Z,120
2017-09-27T06:56:36.782Z,115
2017-09-27T06:57:47.053Z,120
2017-09-27T06:58:57.576Z,125
2017-09-27T07:00:07.525Z,120
2017-09-27T07:01:17.769Z,130
2017-09-27T07:02:28.053Z,130
2017-09-27T07:03:38.320Z,130
2017-09-27T07:04:48.830Z,135
2017-09-27T07:05:59.089Z,155
2017-09-27T07:07:09.347Z,135
2017-09-27T07:08:19.659Z,150
2017-09-27T07:09:29.656Z,125
2017-09-27T07:10:39.858Z,135
2017-09-27T07:11:49.807Z,125
2017-09-27T07:12:59.759Z,135
2017-09-27T07:14:09.789Z,150
2017-09-27T07:15:19.765Z,145
2017-09-27T07:16:30.315Z,155
2017-09-27T07:17:40.592Z,160
2017-09-27T07:18:50.560Z,155
2017-09-27T07:20:00.534Z,155
2017-09-27T07:21:10.807Z,175
2017-09-27T07:22:21.338Z,190
2017-09-27T07:23:31.600Z,190
2017-09-27T07:24:41.856Z,180
2017-09-27T07:25:52.136Z,230
2017-09-27T07:27:01.777Z,255
2017-09-27T07:28:12.306Z,235
2017-09-27T07:29:22.559Z,210
2017-09-27T07:30:32.530Z,250
2017-09-27T07:31:42.468Z,270
2017-09-27T07:32:52.450Z,295
2017-09-27T07:34:02.678Z,290
2017-09-27T07:35:12.935Z,310
2017-09-27T07:36:22.892Z,310
2017-09-27T07:37:32.544Z,290
2017-09-27T07:38:42.185Z,290
2017-09-27T07:39:52.692Z,295
2017-09-27T07:41:02.648Z,285
2017-09-27T07:42:12.630Z,315
2017-09-27T07:43:22.909Z,260
2017-09-27T07:44:32.844Z,265
2017-09-27T07:45:43.045Z,310
2017-09-27T07:46:52.996Z,290
2017-09-27T07:48:03.259Z,360
2017-09-27T07:49:13.522Z,380
2017-09-27T07:50:23.775Z,300
2017-09-27T07:51:33.980Z,315
2017-09-27T07:52:43.921Z,335
2017-09-27T07:53:53.864Z,325
2017-09-27T07:55:03.792Z,300
2017-09-27T07:56:14.054Z,300
2017-09-27T07:57:24.573Z,360
2017-09-27T07:58:34.521Z,350
2017-09-27T07:59:44.796Z,350
2017-09-27T08:00:55.072Z,310
2017-09-27T08:02:05.344Z,345
2017-09-27T08:03:15.907Z,365
2017-09-27T08:04:26.193Z,400
2017-09-27T08:05:36.139Z,395
2017-09-27T08:06:46.392Z,345
2017-09-27T08:07:56.341Z,345
2017-09-27T08:09:06.869Z,370
2017-09-27T08:10:17.145Z,380
2017-09-27T08:11:27.104Z,350
2017-09-27T08:12:36.745Z,320
2017-09-27T08:13:47.004Z,385
2017-09-27T08:14:57.514Z,385
2017-09-27T08:16:07.787Z,390
2017-09-27T08:17:18.037Z,365
2017-09-27T08:18:28.321Z,360
2017-09-27T08:19:38.590Z,365
2017-09-27T08:20:48.152Z,270
2017-09-27T08:21:58.426Z,310
2017-09-27T08:23:08.686Z,310
2017-09-27T08:24:18.631Z,340
2017-09-27T08:25:28.562Z,325
2017-09-27T08:26:39.070Z,295
2017-09-27T08:27:49.013Z,340
2017-09-27T08:28:58.962Z,335
2017-09-27T08:30:09.238Z,295
2017-09-27T08:31:19.517Z,335
2017-09-27T08:32:29.740Z,230
2017-09-27T08:33:40.257Z,335
2017-09-27T08:34:50.545Z,395
2017-09-27T08:36:00.865Z,405
2017-09-27T08:37:11.179Z,315
2017-09-27T08:38:21.798Z,275
2017-09-27T08:39:32.067Z,300
2017-09-27T08:40:42.324Z,315
2017-09-27T08:41:52.581Z,320
2017-09-27T08:43:02.846Z,365
2017-09-27T08:44:13.035Z,360
2017-09-27T08:45:23.298Z,345
2017-09-27T08:46:33.562Z,415
2017-09-27T08:47:43.530Z,485
2017-09-27T08:48:53.786Z,430
2017-09-27T08:50:04.288Z,410
2017-09-27T08:51:14.564Z,390
2017-09-27T08:52:24.860Z,390
2017-09-27T08:53:35.138Z,400
2017-09-27T08:54:45.409Z,435
2017-09-27T08:55:55.327Z,400
2017-09-27T08:57:05.298Z,430
2017-09-27T08:58:15.566Z,410
2017-09-27T08:59:25.518Z,405
2017-09-27T09:00:35.790Z,465
2017-09-27T09:01:46.314Z,390
2017-09-27T09:02:56.577Z,415
2017-09-27T09:04:06.534Z,415
2017-09-27T09:05:16.808Z,390
2017-09-27T09:06:27.090Z,420
2017-09-27T09:07:37.290Z,385
2017-09-27T09:08:47.257Z,360
2017-09-27T09:09:57.522Z,385
2017-09-27T09:11:07.777Z,425
2017-09-27T09:12:18.060Z,465
2017-09-27T09:13:28.586Z,520
2017-09-27T09:14:38.850Z,555
2017-09-27T09:15:49.126Z,570
2017-09-27T09:16:59.382Z,800
2017-09-27T09:18:09.317Z,615
2017-09-27T09:19:19.524Z,565
2017-09-27T09:20:29.792Z,710
2017-09-27T09:21:40.050Z,895
2017-09-27T09:22:49.994Z,925
2017-09-27T09:24:00.249Z,700
2017-09-27T09:25:10.142Z,585
2017-09-27T09:26:20.113Z,620
2017-09-27T09:27:30.058Z,585
2017-09-27T09:28:40.318Z,770
2017-09-27T09:29:50.583Z,615
2017-09-27T09:31:01.091Z,610
2017-09-27T09:32:11.027Z,625
2017-09-27T09:33:21.304Z,690
2017-09-27T09:34:31.571Z,620
2017-09-27T09:35:41.507Z,520
2017-09-27T09:36:52.065Z,400
2017-09-27T09:38:02.000Z,660
2017-09-27T09:39:12.272Z,475
2017-09-27T09:40:22.530Z,470
2017-09-27T09:41:32.795Z,520
2017-09-27T09:42:43.302Z,435
2017-09-27T09:43:53.597Z,490
2017-09-27T09:45:03.884Z,485
2017-09-27T09:46:14.162Z,435
2017-09-27T09:47:24.465Z,445
2017-09-27T09:48:34.658Z,410
2017-09-27T09:49:44.915Z,450
2017-09-27T09:50:55.198Z,560
2017-09-27T09:52:05.566Z,560
2017-09-27T09:53:15.867Z,555
2017-09-27T09:54:26.392Z,515
2017-09-27T09:55:36.663Z,620
2017-09-27T09:56:46.959Z,695
2017-09-27T09:57:57.271Z,630
2017-09-27T09:59:07.602Z,760
2017-09-27T10:00:18.175Z,725
2017-09-27T10:01:28.437Z,735
2017-09-27T10:02:38.716Z,730
2017-09-27T10:03:48.995Z,620
2017-09-27T10:04:58.944Z,730
2017-09-27T10:06:09.475Z,795
2017-09-27T10:07:19.433Z,740
2017-09-27T10:08:29.397Z,665
2017-09-27T10:09:39.353Z,690
2017-09-27T10:10:49.316Z,680
2017-09-27T10:11:59.880Z,740
2017-09-27T10:13:09.839Z,890
2017-09-27T10:14:20.140Z,920
2017-09-27T10:15:30.420Z,840
2017-09-27T10:16:40.368Z,730
2017-09-27T10:17:50.882Z,730
2017-09-27T10:19:01.188Z,655
2017-09-27T10:20:11.466Z,595
2017-09-27T10:21:21.426Z,600
2017-09-27T10:22:31.054Z,550
2017-09-27T10:23:41.276Z,585
2017-09-27T10:24:51.613Z,820
2017-09-27T10:26:01.874Z,945
2017-09-27T10:27:11.767Z,1020
2017-09-27T10:28:22.042Z,885
2017-09-27T10:29:32.542Z,1120
2017-09-27T10:30:42.825Z,1180
2017-09-27T10:31:52.799Z,1210
2017-09-27T10:33:03.066Z,1455
2017-09-27T10:34:13.396Z,1320
2017-09-27T10:35:23.926Z,1120
2017-09-27T10:36:34.246Z,1150
2017-09-27T10:37:44.799Z,1095
2017-09-27T10:38:55.059Z,1175
2017-09-27T10:40:05.039Z,1285
2017-09-27T10:41:15.291Z,995
2017-09-27T10:42:25.587Z,845
2017-09-27T10:43:35.864Z,790
2017-09-27T10:44:46.129Z,845
2017-09-27T10:45:56.389Z,1240
2017-09-27T10:47:06.276Z,1710
2017-09-27T10:48:16.556Z,1305
2017-09-27T10:49:26.520Z,1140
2017-09-27T10:50:36.485Z,840
2017-09-27T10:51:46.796Z,1225
2017-09-27T10:52:57.335Z,1085
2017-09-27T10:54:07.277Z,910
2017-09-27T10:55:17.548Z,1085
2017-09-27T10:56:27.210Z,1205
2017-09-27T10:57:37.477Z,1130
2017-09-27T10:58:47.740Z,860
2017-09-27T10:59:58.041Z,1010
2017-09-27T11:01:08.356Z,1025
2017-09-27T11:02:18.667Z,1230
2017-09-27T11:03:28.657Z,930
2017-09-27T11:04:38.904Z,1175
2017-09-27T11:05:49.259Z,1420
2017-09-27T11:06:59.534Z,1190
2017-09-27T11:08:09.526Z,1180
2017-09-27T11:09:19.813Z,1415
2017-09-27T11:10:30.026Z,1275
2017-09-27T11:11:40.349Z,1240
2017-09-27T11:12:50.645Z,1145
2017-09-27T11:14:00.925Z,1150
2017-09-27T11:15:11.247Z,1560
2017-09-27T11:16:21.729Z,1210
2017-09-27T11:17:31.990Z,1095
2017-09-27T11:18:42.275Z,1070
2017-09-27T11:19:52.247Z,1055
2017-09-27T11:21:02.537Z,1435
2017-09-27T11:22:13.072Z,1775
2017-09-27T11:23:22.697Z,1505
2017-09-27T11:24:32.952Z,1460
2017-09-27T11:25:43.213Z,1845
2017-09-27T11:26:53.173Z,1420
2017-09-27T11:28:03.685Z,1260
2017-09-27T11:29:13.636Z,1175
2017-09-27T11:30:23.590Z,1105
2017-09-27T11:31:33.865Z,1125
2017-09-27T11:32:44.132Z,1245
2017-09-27T11:33:54.681Z,1425
2017-09-27T11:35:04.636Z,1450
2017-09-27T11:36:15.146Z,1190
2017-09-27T11:37:25.134Z,1225
2017-09-27T11:38:35.444Z,1090
2017-09-27T11:39:45.982Z,1030
2017-09-27T11:40:55.938Z,1225
2017-09-27T11:42:06.198Z,995
2017-09-27T11:43:16.477Z,1435
2017-09-27T11:44:26.774Z,1035
2017-09-27T11:45:37.339Z,990
2017-09-27T11:46:47.595Z,1245
2017-09-27T11:47:57.550Z,2435
2017-09-27T11:49:07.509Z,1845
2017-09-27T11:50:17.788Z,1520
2017-09-27T11:51:28.308Z,1870
2017-09-27T11:52:38.277Z,2000
2017-09-27T11:53:48.547Z,1220
2017-09-27T11:54:58.805Z,1310
2017-09-27T11:56:09.070Z,1770
2017-09-27T11:57:19.623Z,1100
2017-09-27T11:58:29.904Z,1215
2017-09-27T11:59:40.434Z,1830
2017-09-27T12:00:50.716Z,1020
2017-09-27T12:02:00.684Z,1135
2017-09-27T12:03:11.224Z,1310
2017-09-27T12:04:21.187Z,2585
2017-09-27T12:05:31.458Z,2770
2017-09-27T12:06:41.783Z,2445
2017-09-27T12:07:51.740Z,1375
2017-09-27T12:09:02.254Z,1270
2017-09-27T12:10:12.531Z,1270
2017-09-27T12:11:22.811Z,975
2017-09-27T12:12:33.330Z,1180
2017-09-27T12:13:43.275Z,1320
2017-09-27T12:14:54.072Z,1395
2017-09-27T12:16:04.373Z,1090
2017-09-27T12:17:14.703Z,1195
2017-09-27T12:18:24.673Z,1085
2017-09-27T12:19:34.937Z,1160
2017-09-27T12:20:45.454Z,1140
2017-09-27T12:21:55.727Z,1060
2017-09-27T12:23:05.998Z,1010
2017-09-27T12:24:16.272Z,1020
2017-09-27T12:25:26.551Z,1090
2017-09-27T12:26:36.770Z,995
2017-09-27T12:27:46.757Z,895
2017-09-27T12:28:56.727Z,855
2017-09-27T12:30:07.000Z,855
2017-09-27T12:31:17.279Z,785
2017-09-27T12:32:27.794Z,750
2017-09-27T12:33:37.763Z,745
2017-09-27T12:34:48.024Z,730
2017-09-27T12:35:57.983Z,725
2017-09-27T12:37:07.631Z,705
2017-09-27T12:38:18.157Z,705
2017-09-27T12:39:28.424Z,720
2017-09-27T12:40:38.719Z,705
2017-09-27T12:41:48.668Z,710
2017-09-27T12:42:58.929Z,720
2017-09-27T12:44:09.471Z,725
2017-09-27T12:45:19.729Z,690
2017-09-27T12:46:29.364Z,670
2017-09-27T12:47:39.631Z,650
2017-09-27T12:48:49.917Z,660
2017-09-27T12:50:00.497Z,640
2017-09-27T12:51:10.451Z,640
2017-09-27T12:52:20.420Z,655
2017-09-27T12:53:30.705Z,655
2017-09-27T12:54:40.972Z,650
2017-09-27T12:55:51.175Z,670
2017-09-27T12:57:01.134Z,720
2017-09-27T12:58:11.076Z,1925
2017-09-27T12:59:21.339Z,1040
2017-09-27T13:00:31.631Z,925
2017-09-27T13:01:42.138Z,705
2017-09-27T13:02:52.400Z,745
2017-09-27T13:04:02.038Z,725
2017-09-27T13:05:12.366Z,690
2017-09-27T13:06:22.325Z,715
2017-09-27T13:07:32.829Z,730
2017-09-27T13:08:42.779Z,720
2017-09-27T13:09:53.054Z,885
2017-09-27T13:11:03.054Z,825
2017-09-27T13:12:13.010Z,695
2017-09-27T13:13:23.208Z,635
2017-09-27T13:14:33.151Z,630
2017-09-27T13:15:43.435Z,620
2017-09-27T13:16:53.385Z,590
2017-09-27T13:18:03.888Z,585
2017-09-27T13:19:14.404Z,560
2017-09-27T13:20:24.687Z,540
2017-09-27T13:21:34.946Z,505
2017-09-27T13:22:45.230Z,565
2017-09-27T13:23:55.508Z,560
2017-09-27T13:25:06.080Z,500
2017-09-27T13:26:16.359Z,455
2017-09-27T13:27:26.622Z,395
2017-09-27T13:28:36.274Z,395
2017-09-27T13:29:46.226Z,400
2017-09-27T13:30:56.830Z,385
2017-09-27T13:32:07.103Z,405
2017-09-27T13:33:17.383Z,420
2017-09-27T13:34:27.023Z,450
2017-09-27T13:35:37.284Z,450
2017-09-27T13:36:47.794Z,440
2017-09-27T13:37:58.063Z,450
2017-09-27T13:39:08.343Z,490
2017-09-27T13:40:18.315Z,580
2017-09-27T13:41:28.572Z,645
2017-09-27T13:42:39.133Z,680
2017-09-27T13:43:49.085Z,720
2017-09-27T13:44:59.344Z,690
2017-09-27T13:46:09.607Z,710
2017-09-27T13:47:19.877Z,975
2017-09-27T13:48:30.376Z,730
2017-09-27T13:49:40.672Z,840
2017-09-27T13:50:50.637Z,640
2017-09-27T13:52:00.910Z,605
2017-09-27T13:53:10.856Z,585
2017-09-27T13:54:21.417Z,585
2017-09-27T13:55:31.366Z,630
2017-09-27T13:56:41.651Z,730
2017-09-27T13:57:51.596Z,1020
2017-09-27T13:59:01.868Z,1030
2017-09-27T14:00:12.379Z,1725
2017-09-27T14:01:22.325Z,2020
2017-09-27T14:02:32.599Z,1005
2017-09-27T14:03:42.561Z,1700
2017-09-27T14:04:52.515Z,1295
2017-09-27T14:06:02.710Z,945
2017-09-27T14:07:13.017Z,1895
2017-09-27T14:08:22.982Z,1050
2017-09-27T14:09:33.245Z,995
2017-09-27T14:10:43.536Z,1490
2017-09-27T14:11:54.112Z,850
2017-09-27T14:13:04.410Z,795
2017-09-27T14:14:14.674Z,745
2017-09-27T14:15:24.924Z,1125
2017-09-27T14:16:35.208Z,815
2017-09-27T14:17:45.403Z,880
2017-09-27T14:18:55.701Z,1970
2017-09-27T14:20:05.964Z,1845
2017-09-27T14:21:16.226Z,990
2017-09-27T14:22:26.493Z,1090
2017-09-27T14:23:37.013Z,985
2017-09-27T14:24:47.297Z,1660
2017-09-27T14:25:57.571Z,1525
2017-09-27T14:27:07.856Z,1325
2017-09-27T14:28:18.141Z,835
2017-09-27T14:29:28.398Z,830
2017-09-27T14:30:38.669Z,1210
2017-09-27T14:31:48.312Z,955
2017-09-27T14:32:58.589Z,1105
2017-09-27T14:34:08.534Z,725
2017-09-27T14:35:19.053Z,725
2017-09-27T14:36:29.319Z,600
2017-09-27T14:37:39.584Z,560
2017-09-27T14:38:49.530Z,565
2017-09-27T14:39:59.816Z,565
2017-09-27T14:41:09.709Z,515
2017-09-27T14:42:19.980Z,545
2017-09-27T14:43:30.260Z,530
2017-09-27T14:44:40.244Z,520
2017-09-27T14:45:50.257Z,490
2017-09-27T14:47:00.769Z,475
2017-09-27T14:48:11.042Z,485
2017-09-27T14:49:21.327Z,465
2017-09-27T14:50:31.283Z,475
2017-09-27T14:51:41.551Z,475
2017-09-27T14:52:52.067Z,475
2017-09-27T14:54:02.327Z,470
2017-09-27T14:55:12.590Z,485
2017-09-27T14:56:22.857Z,485
2017-09-27T14:57:33.129Z,490
2017-09-27T14:58:43.656Z,480
2017-09-27T14:59:53.938Z,475
2017-09-27T15:01:04.201Z,450
2017-09-27T15:02:14.482Z,430
2017-09-27T15:03:24.548Z,450
2017-09-27T15:04:35.054Z,465
2017-09-27T15:05:45.310Z,460
2017-09-27T15:06:55.583Z,455
2017-09-27T15:08:05.535Z,445
2017-09-27T15:09:15.795Z,435
2017-09-27T15:10:26.310Z,410
2017-09-27T15:11:36.260Z,405
2017-09-27T15:12:46.524Z,410
2017-09-27T15:13:56.470Z,405
2017-09-27T15:15:06.419Z,415
2017-09-27T15:16:16.936Z,420
2017-09-27T15:17:27.252Z,420
2017-09-27T15:18:37.513Z,420
2017-09-27T15:19:47.141Z,425
2017-09-27T15:20:57.429Z,435
2017-09-27T15:22:07.941Z,435
2017-09-27T15:23:18.209Z,435
2017-09-27T15:24:28.146Z,430
2017-09-27T15:25:38.399Z,430
2017-09-27T15:26:48.672Z,430
2017-09-27T15:27:59.201Z,430
2017-09-27T15:29:09.459Z,435
2017-09-27T15:30:19.437Z,440
2017-09-27T15:31:29.696Z,435
2017-09-27T15:32:39.651Z,435
2017-09-27T15:33:50.167Z,435
2017-09-27T15:35:00.112Z,445
2017-09-27T15:36:10.088Z,410
2017-09-27T15:37:20.039Z,400
2017-09-27T15:38:30.314Z,385
2017-09-27T15:39:40.514Z,365
2017-09-27T15:40:50.468Z,345
2017-09-27T15:42:00.751Z,385
2017-09-27T15:43:10.719Z,350
2017-09-27T15:44:20.986Z,310
2017-09-27T15:45:31.509Z,300
2017-09-27T15:46:41.778Z,285
2017-09-27T15:47:51.753Z,280
2017-09-27T15:49:02.019Z,280
2017-09-27T15:50:11.972Z,305
2017-09-27T15:51:22.484Z,335
2017-09-27T15:52:32.794Z,385
2017-09-27T15:53:42.745Z,300
2017-09-27T15:54:53.012Z,285
2017-09-27T15:56:03.270Z,325
2017-09-27T15:57:13.469Z,335
2017-09-27T15:58:23.780Z,350
2017-09-27T15:59:33.714Z,325
2017-09-27T16:00:43.990Z,290
2017-09-27T16:01:54.248Z,265
2017-09-27T16:03:04.768Z,255
2017-09-27T16:04:15.065Z,275
2017-09-27T16:05:25.340Z,275
2017-09-27T16:06:35.612Z,260
2017-09-27T16:07:45.890Z,235
2017-09-27T16:08:56.401Z,200
2017-09-27T16:10:06.367Z,180
2017-09-27T16:11:16.634Z,180
2017-09-27T16:12:26.937Z,160
2017-09-27T16:13:37.216Z,150
2017-09-27T16:14:47.740Z,135
2017-09-27T16:15:58.007Z,125
2017-09-27T16:17:08.281Z,120
2017-09-27T16:18:18.218Z,110
2017-09-27T16:19:28.482Z,105
2017-09-27T16:20:38.680Z,100
2017-09-27T16:21:48.932Z,95
2017-09-27T16:22:58.865Z,90
2017-09-27T16:24:08.502Z,90
2017-09-27T16:25:18.761Z,85